Time;durP1;ratioP1;P1;durP2;ratioP2;P2;SDS_P1;SDS_P2;PMS_P1;PMS_P2;Temp;Humidity;BMP_temperature;BMP_pressure;BME280_temperature;BME280_humidity;BME280_pressure;Samples;Min_cycle;Max_cycle;Signal;HPM_P1;HPM_P2
2023/01/09 00:00:18;;;;;;;6.32;1.85;;;8.20;99.90;;;;;;5031458;28;20564;-67
2023/01/09 00:02:44;;;;;;;3.03;1.98;;;8.10;99.90;;;;;;5031300;28;20045;-67
2023/01/09 00:05:11;;;;;;;2.50;1.58;;;8.10;99.90;;;;;;5031778;28;20041;-66
2023/01/09 00:07:37;;;;;;;4.60;1.90;;;8.10;99.90;;;;;;5032005;28;20088;-67
2023/01/09 00:10:04;;;;;;;3.35;2.17;;;8.20;99.90;;;;;;5031792;28;20033;-67
2023/01/09 00:12:30;;;;;;;2.45;1.65;;;8.10;99.90;;;;;;5031362;28;20052;-66
2023/01/09 00:14:55;;;;;;;3.72;1.85;;;8.10;99.90;;;;;;5030679;28;20473;-67
2023/01/09 00:17:21;;;;;;;4.63;2.00;;;8.10;99.90;;;;;;5031491;28;20045;-67
2023/01/09 00:19:46;;;;;;;6.28;2.00;;;8.10;99.90;;;;;;5031752;28;20038;-66
2023/01/09 00:22:12;;;;;;;2.42;1.80;;;8.10;99.90;;;;;;5031395;28;20096;-67
2023/01/09 00:24:38;;;;;;;4.15;1.85;;;8.10;99.90;;;;;;5030670;28;20038;-66
2023/01/09 00:27:03;;;;;;;2.90;2.05;;;8.10;99.90;;;;;;5037290;28;20083;-67
2023/01/09 00:29:29;;;;;;;2.85;2.13;;;8.10;99.90;;;;;;5051614;28;20040;-67
2023/01/09 00:31:55;;;;;;;4.90;1.95;;;8.00;99.90;;;;;;5051487;28;20048;-67
2023/01/09 00:34:20;;;;;;;2.78;2.05;;;8.00;99.90;;;;;;5050676;28;20037;-67
2023/01/09 00:36:46;;;;;;;2.00;1.80;;;8.10;99.90;;;;;;5051376;28;20237;-69
2023/01/09 00:39:11;;;;;;;5.70;2.70;;;8.10;99.90;;;;;;5051660;28;20052;-70
2023/01/09 00:41:43;;;;;;;3.22;2.00;;;8.00;99.90;;;;;;5051158;28;20044;-71
2023/01/09 00:44:15;;;;;;;5.95;2.05;;;8.00;99.90;;;;;;5050436;28;20060;-72
2023/01/09 00:46:45;;;;;;;5.87;2.50;;;8.00;99.90;;;;;;5051421;28;20062;-72
2023/01/09 00:49:12;;;;;;;2.20;2.00;;;7.90;99.90;;;;;;5051338;28;20037;-71
2023/01/09 00:51:39;;;;;;;4.65;1.70;;;7.90;99.90;;;;;;5051330;28;20052;-72
2023/01/09 00:54:04;;;;;;;4.53;1.95;;;7.90;99.90;;;;;;5050375;28;20048;-72
2023/01/09 00:56:31;;;;;;;1.92;1.50;;;7.90;99.90;;;;;;5050936;28;20116;-71
2023/01/09 00:58:56;;;;;;;3.80;1.73;;;7.80;99.90;;;;;;5050906;28;20044;-70
2023/01/09 01:01:22;;;;;;;2.47;1.65;;;7.80;99.90;;;;;;5050190;28;20033;-68
2023/01/09 01:03:48;;;;;;;2.58;1.48;;;7.80;99.90;;;;;;5051783;28;20482;-68
2023/01/09 01:08:57;;;;;;;4.13;1.40;;;7.80;99.90;;;;;;5055015;28;20041;-67
2023/01/09 01:11:23;;;;;;;1.90;1.25;;;7.70;99.90;;;;;;5054983;28;20040;-67
2023/01/09 01:13:49;;;;;;;2.08;1.25;;;7.70;99.90;;;;;;5054201;28;20048;-68
2023/01/09 01:16:17;;;;;;;2.72;1.83;;;7.70;99.90;;;;;;5054704;28;20541;-67
2023/01/09 01:18:42;;;;;;;3.05;1.63;;;7.70;99.90;;;;;;5054633;28;20464;-67
2023/01/09 01:21:10;;;;;;;4.82;1.50;;;7.80;99.90;;;;;;5054737;28;20041;-67
2023/01/09 01:23:36;;;;;;;1.73;1.63;;;7.70;99.90;;;;;;5054423;28;20493;-67
2023/01/09 01:26:11;;;;;;;1.88;1.63;;;7.80;99.90;;;;;;5054054;28;20111;-67
2023/01/09 01:28:37;;;;;;;2.22;1.90;;;7.70;99.90;;;;;;5054669;28;20040;-67
2023/01/09 01:31:04;;;;;;;2.28;2.08;;;7.70;99.90;;;;;;5054388;28;20481;-67
2023/01/09 01:33:29;;;;;;;4.95;2.10;;;7.70;99.90;;;;;;5054172;28;20116;-68
2023/01/09 01:36:04;;;;;;;2.30;2.10;;;7.70;99.90;;;;;;5053324;28;20191;-67
2023/01/09 01:38:31;;;;;;;5.10;2.40;;;7.70;99.90;;;;;;5054425;28;20052;-67
2023/01/09 01:40:57;;;;;;;4.63;2.30;;;7.70;99.90;;;;;;5054176;28;20037;-67
2023/01/09 01:43:23;;;;;;;4.45;2.58;;;7.70;99.90;;;;;;5054063;28;20366;-67
2023/01/09 01:45:49;;;;;;;3.80;2.47;;;7.70;99.90;;;;;;5053299;28;20040;-67
2023/01/09 01:48:28;;;;;;;4.60;2.60;;;7.70;99.90;;;;;;5052754;28;20123;-67
2023/01/09 01:51:01;;;;;;;4.70;2.17;;;7.60;99.90;;;;;;5053937;28;20079;-67
2023/01/09 01:53:37;;;;;;;7.80;3.83;;;7.60;99.90;;;;;;5054107;28;20090;-67
2023/01/09 01:56:09;;;;;;;3.28;2.00;;;7.60;99.90;;;;;;5053177;28;20048;-66
2023/01/09 01:58:41;;;;;;;2.65;2.15;;;7.60;99.90;;;;;;5053664;28;20037;-67
2023/01/09 02:01:07;;;;;;;4.97;1.85;;;7.60;99.90;;;;;;5052913;28;20045;-67
2023/01/09 02:03:33;;;;;;;2.97;2.15;;;7.60;99.90;;;;;;5052445;28;20126;-67
2023/01/09 02:05:59;;;;;;;5.88;2.00;;;7.60;99.90;;;;;;5052852;28;20175;-67
2023/01/09 02:08:25;;;;;;;2.47;1.73;;;7.60;99.90;;;;;;5053622;28;20119;-67
2023/01/09 02:10:52;;;;;;;3.83;1.92;;;7.60;99.90;;;;;;5053867;28;20033;-67
2023/01/09 02:13:19;;;;;;;3.28;1.67;;;7.60;99.90;;;;;;5053408;28;20045;-67
2023/01/09 02:15:50;;;;;;;1.73;1.63;;;7.60;99.90;;;;;;5051183;28;20052;-67
2023/01/09 02:18:28;;;;;;;3.10;1.85;;;7.60;99.90;;;;;;5053668;28;20072;-67
2023/01/09 02:20:57;;;;;;;2.90;1.40;;;7.60;99.90;;;;;;5053497;28;20072;-67
2023/01/09 02:24:04;;;;;;;2.03;1.85;;;7.50;99.90;;;;;;5053467;28;20047;-67
2023/01/09 02:27:12;;;;;;;3.70;1.60;;;7.50;99.90;;;;;;5052160;28;20041;-67
2023/01/09 02:29:59;;;;;;;2.00;1.90;;;7.60;99.90;;;;;;5053278;28;20043;-67
2023/01/09 02:32:57;;;;;;;2.40;1.40;;;7.50;99.90;;;;;;5053007;28;20041;-67
2023/01/09 02:35:49;;;;;;;6.72;1.88;;;7.50;99.90;;;;;;5052620;28;20044;-67
2023/01/09 02:38:33;;;;;;;2.05;1.60;;;7.50;99.90;;;;;;5053331;28;20045;-67
2023/01/09 02:41:05;;;;;;;2.83;1.63;;;7.60;99.90;;;;;;5053157;28;20413;-67
2023/01/09 02:43:31;;;;;;;2.30;1.52;;;7.50;99.90;;;;;;5053115;28;20041;-67
2023/01/09 02:45:57;;;;;;;3.83;1.85;;;7.50;99.90;;;;;;5052224;28;20041;-67
2023/01/09 02:48:22;;;;;;;6.07;2.10;;;7.40;99.90;;;;;;5053142;28;20119;-67
2023/01/09 02:51:21;;;;;;;4.95;1.67;;;7.40;99.90;;;;;;5052769;28;20086;-67
2023/01/09 02:54:14;;;;;;;1.80;1.70;;;7.40;99.90;;;;;;5052206;28;20404;-67
2023/01/09 02:56:50;;;;;;;2.70;2.40;;;7.40;99.90;;;;;;5052876;28;20044;-67
2023/01/09 02:59:19;;;;;;;3.15;1.85;;;7.30;99.90;;;;;;5052759;28;20111;-67
2023/01/09 03:02:06;;;;;;;3.35;1.65;;;7.30;99.90;;;;;;5051735;28;20044;-67
2023/01/09 03:05:02;;;;;;;3.13;1.73;;;7.30;99.90;;;;;;5052006;28;20446;-67
2023/01/09 03:07:33;;;;;;;1.75;1.65;;;7.20;99.90;;;;;;5052984;28;20049;-67
2023/01/09 03:10:11;;;;;;;3.20;1.83;;;7.20;99.90;;;;;;5051428;28;20051;-67
2023/01/09 03:12:40;;;;;;;2.72;1.95;;;7.20;99.90;;;;;;5052554;28;20070;-67
2023/01/09 03:15:10;;;;;;;4.18;1.80;;;7.20;99.90;;;;;;5051918;28;20037;-67
2023/01/09 03:17:39;;;;;;;4.43;1.63;;;7.10;99.90;;;;;;5052526;28;20041;-67
2023/01/09 03:20:08;;;;;;;2.15;1.65;;;7.10;99.90;;;;;;5052496;28;20049;-67
2023/01/09 03:22:33;;;;;;;4.35;1.95;;;7.10;99.90;;;;;;5052020;28;20041;-67
2023/01/09 03:24:59;;;;;;;2.10;1.80;;;7.10;99.90;;;;;;5051436;28;20060;-67
2023/01/09 03:27:25;;;;;;;3.92;2.00;;;7.00;99.90;;;;;;5051513;28;20039;-67
2023/01/09 03:29:52;;;;;;;3.08;1.70;;;7.00;99.90;;;;;;5052448;28;20037;-67
2023/01/09 03:32:18;;;;;;;3.25;1.92;;;7.00;99.90;;;;;;5052210;28;20124;-67
2023/01/09 03:34:43;;;;;;;5.03;1.90;;;7.00;99.90;;;;;;5033274;28;20095;-67
2023/01/09 03:37:09;;;;;;;2.67;2.42;;;6.90;99.90;;;;;;5052207;28;20041;-66
2023/01/09 03:39:34;;;;;;;4.03;2.08;;;6.90;99.90;;;;;;5052121;28;20123;-67
2023/01/09 03:42:00;;;;;;;4.28;2.05;;;6.80;99.90;;;;;;5051693;28;20037;-67
2023/01/09 03:44:26;;;;;;;2.35;2.00;;;6.80;99.90;;;;;;5050910;28;20087;-67
2023/01/09 03:46:51;;;;;;;2.30;1.60;;;6.70;99.90;;;;;;5052052;28;20037;-67
2023/01/09 03:49:17;;;;;;;4.85;2.30;;;6.70;99.90;;;;;;5051866;28;20090;-67
2023/01/09 03:51:43;;;;;;;3.60;2.38;;;6.80;99.90;;;;;;5052114;28;20036;-67
2023/01/09 03:54:09;;;;;;;3.75;2.55;;;6.60;99.90;;;;;;5051025;28;20037;-67
2023/01/09 03:56:34;;;;;;;3.25;2.47;;;6.70;99.90;;;;;;5050438;28;20040;-67
2023/01/09 03:59:00;;;;;;;4.70;2.63;;;6.60;99.90;;;;;;5051647;28;20045;-67
2023/01/09 04:01:25;;;;;;;4.35;2.80;;;6.70;99.90;;;;;;5049515;28;20041;-67
2023/01/09 04:03:51;;;;;;;3.83;2.50;;;6.60;99.90;;;;;;5050621;28;20045;-66
2023/01/09 04:06:16;;;;;;;4.80;3.00;;;6.70;99.90;;;;;;5051583;28;20045;-67
2023/01/09 04:08:42;;;;;;;5.82;3.15;;;6.60;99.90;;;;;;5051449;28;20037;-67
2023/01/09 04:11:08;;;;;;;4.28;2.92;;;6.50;99.90;;;;;;5051426;28;20179;-67
2023/01/09 04:13:34;;;;;;;9.73;3.13;;;6.50;99.90;;;;;;5051618;28;20044;-67
2023/01/09 04:15:59;;;;;;;5.47;3.75;;;6.50;99.90;;;;;;5050809;28;20044;-67
2023/01/09 04:18:25;;;;;;;6.70;3.67;;;6.50;99.90;;;;;;5051676;28;20041;-67
2023/01/09 04:20:50;;;;;;;7.22;4.97;;;6.50;99.90;;;;;;5051339;28;20041;-67
2023/01/09 04:23:16;;;;;;;6.65;4.38;;;6.40;99.90;;;;;;5051286;28;20108;-66
2023/01/09 04:25:42;;;;;;;7.70;4.60;;;6.40;99.90;;;;;;5050727;28;20505;-66
2023/01/09 04:28:07;;;;;;;6.60;4.65;;;6.40;99.90;;;;;;5051657;28;20044;-66
2023/01/09 04:30:33;;;;;;;7.72;4.90;;;6.50;99.90;;;;;;5051579;28;20099;-66
2023/01/09 04:32:58;;;;;;;7.10;4.53;;;6.50;99.90;;;;;;5051202;28;20040;-66
2023/01/09 04:35:24;;;;;;;9.20;4.95;;;6.40;99.90;;;;;;5050651;28;20115;-66
2023/01/09 04:37:49;;;;;;;7.65;5.05;;;6.40;99.90;;;;;;5051337;28;20045;-66
2023/01/09 04:40:15;;;;;;;7.75;4.80;;;6.40;99.90;;;;;;5055675;28;20036;-66
2023/01/09 04:42:41;;;;;;;10.70;5.80;;;6.30;99.90;;;;;;5055236;28;20040;-66
2023/01/09 04:45:09;;;;;;;9.38;5.95;;;6.40;99.90;;;;;;5054747;28;20037;-66
2023/01/09 04:47:34;;;;;;;11.27;5.68;;;6.30;99.90;;;;;;5055172;28;20033;-66
2023/01/09 04:50:00;;;;;;;7.90;5.78;;;6.30;99.90;;;;;;5055150;28;20522;-66
2023/01/09 04:52:26;;;;;;;10.27;5.90;;;6.30;99.90;;;;;;5055233;28;20523;-66
2023/01/09 04:54:52;;;;;;;11.18;5.35;;;6.30;99.90;;;;;;5054468;28;20049;-66
2023/01/09 04:57:17;;;;;;;10.63;5.78;;;6.30;99.90;;;;;;5053879;28;20055;-66
2023/01/09 04:59:43;;;;;;;9.32;5.90;;;6.30;99.90;;;;;;5054853;28;20037;-66
2023/01/09 05:02:09;;;;;;;8.13;5.90;;;6.30;99.90;;;;;;5053741;28;20119;-66
2023/01/09 05:04:35;;;;;;;10.48;5.78;;;6.30;99.90;;;;;;5054232;28;20032;-66
2023/01/09 05:07:00;;;;;;;10.68;6.15;;;6.20;99.90;;;;;;5053601;28;20530;-66
2023/01/09 05:09:26;;;;;;;6.88;5.50;;;6.20;99.90;;;;;;5054739;28;20453;-66
2023/01/09 05:11:52;;;;;;;10.55;6.07;;;6.20;99.90;;;;;;5054897;28;20059;-66
2023/01/09 05:14:18;;;;;;;9.73;5.93;;;6.20;99.90;;;;;;5053977;28;20036;-66
2023/01/09 05:16:43;;;;;;;13.98;5.68;;;6.30;99.90;;;;;;5054970;28;20123;-66
2023/01/09 05:19:09;;;;;;;7.35;4.68;;;6.20;99.90;;;;;;5053343;28;20045;-66
2023/01/09 05:21:35;;;;;;;10.02;5.20;;;6.10;99.90;;;;;;5054450;28;20037;-66
2023/01/09 05:24:00;;;;;;;13.48;5.55;;;6.00;99.90;;;;;;5054020;28;20033;-67
2023/01/09 05:26:26;;;;;;;7.95;4.90;;;6.00;99.90;;;;;;5054611;28;20037;-66
2023/01/09 05:28:55;;;;;;;9.35;5.20;;;6.00;99.90;;;;;;5054720;28;20557;-66
2023/01/09 05:31:21;;;;;;;11.00;5.43;;;6.00;99.90;;;;;;5054546;28;20059;-66
2023/01/09 05:33:46;;;;;;;8.30;5.00;;;6.00;99.90;;;;;;5053489;28;20079;-66
2023/01/09 05:36:12;;;;;;;9.82;5.07;;;5.90;99.90;;;;;;5054119;28;20076;-66
2023/01/09 05:38:37;;;;;;;8.70;5.05;;;5.90;99.90;;;;;;5054399;28;20178;-66
2023/01/09 05:41:03;;;;;;;11.38;5.05;;;5.90;99.90;;;;;;5052746;28;20056;-66
2023/01/09 05:43:29;;;;;;;8.25;5.25;;;6.00;99.90;;;;;;5054146;28;20401;-66
2023/01/09 05:45:54;;;;;;;9.60;5.05;;;5.90;99.90;;;;;;5053335;28;20116;-66
2023/01/09 05:48:20;;;;;;;9.30;5.03;;;6.00;99.90;;;;;;5054182;28;20037;-66
2023/01/09 05:50:46;;;;;;;7.30;4.55;;;6.10;99.90;;;;;;5053072;28;20102;-66
2023/01/09 05:53:11;;;;;;;11.07;5.40;;;6.10;99.90;;;;;;5053980;28;20047;-66
2023/01/09 05:55:37;;;;;;;5.63;4.50;;;6.00;99.90;;;;;;5053358;28;20036;-66
2023/01/09 05:58:02;;;;;;;7.90;4.65;;;6.00;99.90;;;;;;5053750;28;20063;-66
2023/01/09 06:00:28;;;;;;;8.70;4.45;;;6.00;99.90;;;;;;5052959;28;20041;-66
2023/01/09 06:02:53;;;;;;;7.93;5.28;;;6.00;99.90;;;;;;5052256;28;20049;-66
2023/01/09 06:05:19;;;;;;;7.50;4.80;;;6.00;99.90;;;;;;5053351;28;20043;-66
2023/01/09 06:07:45;;;;;;;12.60;4.97;;;6.00;99.90;;;;;;5053583;28;20044;-66
2023/01/09 06:10:12;;;;;;;9.15;4.55;;;6.00;99.90;;;;;;5053895;28;20095;-66
2023/01/09 06:12:38;;;;;;;10.15;4.45;;;6.00;99.90;;;;;;5053744;28;20041;-66
2023/01/09 06:15:04;;;;;;;10.93;4.60;;;6.00;99.90;;;;;;5052684;28;20048;-66
2023/01/09 06:17:30;;;;;;;9.40;4.75;;;6.00;99.90;;;;;;5053813;28;20067;-66
2023/01/09 06:19:56;;;;;;;7.50;4.57;;;6.00;99.90;;;;;;5053627;28;20409;-66
2023/01/09 06:22:21;;;;;;;7.05;4.45;;;6.00;99.90;;;;;;5053690;28;20048;-66
2023/01/09 06:24:47;;;;;;;5.38;4.28;;;6.00;99.90;;;;;;5052534;28;20037;-66
2023/01/09 06:27:12;;;;;;;7.97;3.80;;;6.00;99.90;;;;;;5053417;28;20116;-66
2023/01/09 06:29:38;;;;;;;10.10;4.63;;;5.90;99.90;;;;;;5053122;28;20036;-66
2023/01/09 06:32:04;;;;;;;7.80;4.57;;;5.90;99.90;;;;;;5051998;28;20080;-66
2023/01/09 06:34:30;;;;;;;8.90;4.28;;;6.00;99.90;;;;;;5052463;28;20510;-65
2023/01/09 06:36:56;;;;;;;8.65;4.47;;;5.90;99.90;;;;;;5053305;28;20045;-66
2023/01/09 06:39:21;;;;;;;11.35;4.57;;;5.90;99.90;;;;;;5053334;28;20047;-66
2023/01/09 06:41:47;;;;;;;9.50;4.22;;;5.80;99.90;;;;;;5052863;28;20083;-66
2023/01/09 06:44:12;;;;;;;9.60;3.83;;;5.80;99.90;;;;;;5051999;28;20040;-66
2023/01/09 06:46:38;;;;;;;5.13;3.53;;;5.80;99.90;;;;;;5053131;28;20033;-66
2023/01/09 06:49:03;;;;;;;5.97;3.72;;;5.70;99.90;;;;;;5053127;28;20041;-66
2023/01/09 06:51:29;;;;;;;8.55;3.70;;;5.70;99.90;;;;;;5053024;28;20500;-66
2023/01/09 06:53:55;;;;;;;5.03;3.75;;;5.70;99.90;;;;;;5051995;28;20499;-66
2023/01/09 06:56:20;;;;;;;7.30;3.85;;;5.70;99.90;;;;;;5053064;28;20044;-66
2023/01/09 06:58:46;;;;;;;5.70;3.38;;;5.70;99.90;;;;;;5052554;28;20421;-66
2023/01/09 07:01:11;;;;;;;3.63;3.22;;;5.70;99.90;;;;;;5051446;28;20049;-66
2023/01/09 07:03:37;;;;;;;8.73;3.72;;;5.60;99.90;;;;;;5052530;28;20045;-66
2023/01/09 07:06:03;;;;;;;5.57;3.38;;;5.50;99.90;;;;;;5050639;28;20123;-66
2023/01/09 07:08:29;;;;;;;8.60;3.35;;;5.60;99.90;;;;;;5052877;28;20033;-66
2023/01/09 07:10:54;;;;;;;5.03;3.00;;;5.50;99.90;;;;;;5052719;28;20043;-66
2023/01/09 07:13:20;;;;;;;4.53;3.67;;;5.50;99.90;;;;;;5052451;28;20037;-66
2023/01/09 07:15:45;;;;;;;4.65;3.55;;;5.50;99.90;;;;;;5051907;28;20041;-66
2023/01/09 07:18:11;;;;;;;6.40;2.63;;;5.50;99.90;;;;;;5052558;28;20045;-66
2023/01/09 07:20:40;;;;;;;6.85;3.50;;;5.50;99.90;;;;;;5052334;28;20033;-66
2023/01/09 07:23:06;;;;;;;6.22;3.13;;;5.60;99.90;;;;;;5052365;28;20041;-66
2023/01/09 07:25:32;;;;;;;5.32;2.90;;;5.60;99.90;;;;;;5051165;28;20045;-66
2023/01/09 07:27:57;;;;;;;6.68;2.78;;;5.60;99.90;;;;;;5052330;28;20577;-66
2023/01/09 07:30:23;;;;;;;4.55;3.10;;;5.70;99.90;;;;;;5052091;28;20045;-66
2023/01/09 07:32:49;;;;;;;5.00;2.88;;;5.70;99.90;;;;;;5052206;28;20124;-66
2023/01/09 07:35:15;;;;;;;7.03;3.50;;;5.70;99.90;;;;;;5050270;28;20048;-66
2023/01/09 07:37:41;;;;;;;10.65;3.45;;;5.70;99.90;;;;;;5051931;28;20053;-66
2023/01/09 07:40:07;;;;;;;8.13;3.13;;;5.70;99.90;;;;;;5051731;28;20091;-66
2023/01/09 07:42:33;;;;;;;9.55;3.75;;;5.80;99.90;;;;;;5048356;28;20397;-66
2023/01/09 07:44:58;;;;;;;7.80;3.55;;;5.80;99.90;;;;;;5041719;28;20029;-66
2023/01/09 07:47:24;;;;;;;7.85;4.07;;;5.80;99.90;;;;;;5039149;28;20103;-66
2023/01/09 07:49:50;;;;;;;6.18;2.63;;;5.80;99.90;;;;;;5044454;28;20064;-66
2023/01/09 07:52:15;;;;;;;3.10;2.67;;;5.80;99.90;;;;;;5050505;28;20036;-66
2023/01/09 07:54:41;;;;;;;5.93;3.05;;;5.80;99.90;;;;;;5051166;28;20052;-66
2023/01/09 07:57:06;;;;;;;5.85;3.28;;;5.80;99.90;;;;;;5049256;28;20044;-66
2023/01/09 07:59:32;;;;;;;9.00;3.13;;;5.90;99.90;;;;;;5040917;28;20127;-67
2023/01/09 08:01:57;;;;;;;7.10;2.83;;;5.90;99.90;;;;;;5048329;28;20098;-66
2023/01/09 08:04:23;;;;;;;6.43;2.67;;;5.90;99.90;;;;;;5047226;28;20120;-67
2023/01/09 08:06:49;;;;;;;10.35;3.10;;;5.90;99.90;;;;;;5046790;28;20040;-69
2023/01/09 08:09:14;;;;;;;5.38;3.13;;;5.90;99.90;;;;;;5046822;28;20170;-67
2023/01/09 08:11:41;;;;;;;7.70;3.17;;;6.20;99.90;;;;;;5061371;28;20493;-67
2023/01/09 08:14:06;;;;;;;7.68;3.63;;;6.10;99.90;;;;;;5069675;28;20055;-66
2023/01/09 08:16:32;;;;;;;6.88;3.33;;;6.10;99.90;;;;;;5071112;28;20041;-66
2023/01/09 08:18:58;;;;;;;4.30;2.85;;;6.00;99.90;;;;;;5070675;28;20040;-66
2023/01/09 08:21:23;;;;;;;8.35;2.83;;;6.00;99.90;;;;;;5070802;28;20044;-67
2023/01/09 08:23:49;;;;;;;6.15;2.60;;;6.10;99.90;;;;;;5064887;28;20043;-67
2023/01/09 08:26:15;;;;;;;3.55;2.65;;;6.10;99.90;;;;;;5058097;28;20045;-67
2023/01/09 08:28:41;;;;;;;7.75;2.90;;;6.10;99.90;;;;;;5055511;28;20064;-67
2023/01/09 08:31:07;;;;;;;7.55;3.00;;;6.10;99.90;;;;;;5049698;28;20040;-66
2023/01/09 08:33:32;;;;;;;4.78;2.33;;;6.10;99.90;;;;;;5050616;28;20056;-66
2023/01/09 08:35:58;;;;;;;7.07;3.10;;;6.10;99.90;;;;;;5049911;28;20530;-66
2023/01/09 08:38:24;;;;;;;8.75;3.45;;;6.10;99.90;;;;;;5050583;28;20460;-67
2023/01/09 08:40:49;;;;;;;7.88;3.28;;;6.20;99.90;;;;;;5048998;28;20521;-66
2023/01/09 08:48:57;;;;;;;4.82;2.70;;;6.20;99.90;;;;;;5026680;28;20049;-67
2023/01/09 08:51:23;;;;;;;5.90;2.42;;;6.20;99.90;;;;;;5050727;28;20434;-67
2023/01/09 08:53:49;;;;;;;4.63;3.03;;;6.20;99.90;;;;;;5049779;28;20855;-66
2023/01/09 08:56:14;;;;;;;7.10;2.58;;;6.30;99.90;;;;;;5050638;28;20386;-66
2023/01/09 08:58:40;;;;;;;5.18;2.70;;;6.30;99.90;;;;;;5050344;28;20497;-66
2023/01/09 09:01:06;;;;;;;7.35;2.72;;;6.30;99.90;;;;;;5049975;28;20049;-66
2023/01/09 09:03:32;;;;;;;7.20;2.83;;;6.30;99.90;;;;;;5050263;28;20037;-66
2023/01/09 09:05:57;;;;;;;4.10;2.22;;;6.40;99.90;;;;;;5049372;28;20033;-66
2023/01/09 09:08:23;;;;;;;8.07;2.97;;;6.40;99.90;;;;;;5050325;28;20045;-66
2023/01/09 09:10:49;;;;;;;6.50;2.35;;;6.40;99.90;;;;;;5050345;28;20072;-66
2023/01/09 09:13:15;;;;;;;11.80;3.00;;;6.40;99.90;;;;;;5049896;28;20041;-66
2023/01/09 09:15:41;;;;;;;9.98;2.92;;;6.40;99.90;;;;;;5049658;28;20056;-66
2023/01/09 09:18:08;;;;;;;4.82;2.83;;;6.40;99.90;;;;;;5049822;28;20558;-67
2023/01/09 09:20:36;;;;;;;9.77;3.30;;;7.50;99.90;;;;;;5050146;28;20052;-70
2023/01/09 09:23:02;;;;;;;7.57;3.42;;;7.70;99.90;;;;;;5058617;28;20551;-69
2023/01/09 09:25:28;;;;;;;9.02;3.10;;;7.10;99.90;;;;;;5060076;28;20115;-69
2023/01/09 09:27:56;;;;;;;7.50;2.28;;;7.00;99.90;;;;;;5053034;28;20404;-70
2023/01/09 09:30:22;;;;;;;6.97;2.55;;;7.00;99.90;;;;;;5053155;28;20040;-70
2023/01/09 09:32:48;;;;;;;7.70;2.83;;;6.90;99.90;;;;;;5057442;28;20039;-69
2023/01/09 09:35:16;;;;;;;6.72;2.35;;;6.90;99.90;;;;;;5062176;28;20291;-70
2023/01/09 09:37:42;;;;;;;7.82;2.85;;;6.80;99.90;;;;;;5059870;28;20052;-69
2023/01/09 09:40:41;;;;;;;4.50;3.50;;;6.90;99.90;;;;;;5063461;28;20040;-69
2023/01/09 09:46:11;;;;;;;10.05;3.17;;;6.90;99.90;;;;;;5051759;28;20040;-69
2023/01/09 09:48:44;;;;;;;8.07;3.10;;;6.90;99.90;;;;;;5053437;28;20041;-69
2023/01/09 09:51:30;;;;;;;17.35;3.50;;;6.90;99.90;;;;;;5054050;28;20072;-69
2023/01/09 09:54:01;;;;;;;7.15;2.70;;;7.00;99.90;;;;;;5034504;28;20052;-69
2023/01/09 09:56:31;;;;;;;7.10;2.95;;;6.90;99.90;;;;;;5053618;28;20037;-67
2023/01/09 09:59:03;;;;;;;4.60;2.40;;;7.00;99.90;;;;;;5053263;28;20037;-67
2023/01/09 10:01:51;;;;;;;8.35;3.20;;;7.00;99.90;;;;;;5053416;28;20068;-68
2023/01/09 10:04:19;;;;;;;5.18;2.70;;;7.00;99.90;;;;;;5052353;28;20396;-66
2023/01/09 10:06:51;;;;;;;7.90;2.63;;;7.00;99.90;;;;;;5053269;28;20048;-66
2023/01/09 10:09:47;;;;;;;5.28;2.45;;;7.00;99.90;;;;;;5053234;28;20040;-67
2023/01/09 10:12:37;;;;;;;7.43;3.42;;;7.00;99.90;;;;;;5050813;28;20060;-66
2023/01/09 10:15:28;;;;;;;5.22;3.42;;;7.00;99.90;;;;;;5052444;28;20063;-67
2023/01/09 10:18:25;;;;;;;5.18;2.80;;;6.90;99.90;;;;;;5053170;28;20041;-66
2023/01/09 10:20:56;;;;;;;9.88;3.15;;;7.00;99.90;;;;;;5053008;28;20106;-66
2023/01/09 10:23:45;;;;;;;5.10;2.28;;;7.00;99.90;;;;;;5052843;28;20055;-67
2023/01/09 10:26:23;;;;;;;3.92;2.75;;;6.90;99.90;;;;;;5052935;28;20056;-67
2023/01/09 10:29:06;;;;;;;3.65;2.25;;;6.90;99.90;;;;;;5052790;28;20041;-66
2023/01/09 10:32:01;;;;;;;4.57;2.55;;;7.00;99.90;;;;;;5052898;28;20418;-67
2023/01/09 10:35:05;;;;;;;5.47;2.25;;;7.00;99.90;;;;;;5051803;28;20041;-67
2023/01/09 10:37:38;;;;;;;3.85;2.50;;;7.00;99.90;;;;;;5052217;28;20045;-67
2023/01/09 10:40:27;;;;;;;5.72;2.65;;;7.00;99.90;;;;;;5052410;28;20505;-66
2023/01/09 10:43:08;;;;;;;3.72;2.92;;;7.00;99.90;;;;;;5051809;28;20110;-66
2023/01/09 10:45:46;;;;;;;4.43;3.22;;;7.10;99.90;;;;;;5051544;28;20047;-66
2023/01/09 10:48:37;;;;;;;4.53;2.30;;;7.10;99.90;;;;;;5052499;28;20055;-67
2023/01/09 10:51:13;;;;;;;4.43;2.67;;;7.10;99.90;;;;;;5051035;28;20048;-66
2023/01/09 10:53:44;;;;;;;6.93;3.10;;;7.10;99.90;;;;;;5052162;28;20040;-70
2023/01/09 10:56:23;;;;;;;8.68;2.85;;;7.20;99.90;;;;;;5052152;28;20128;-69
2023/01/09 10:58:50;;;;;;;4.57;2.95;;;7.10;99.90;;;;;;5052248;28;20040;-69
2023/01/09 11:01:29;;;;;;;7.40;3.33;;;7.20;99.90;;;;;;5034105;28;20077;-69
2023/01/09 11:03:57;;;;;;;6.10;2.92;;;7.20;99.90;;;;;;5051504;28;20045;-69
2023/01/09 11:06:35;;;;;;;6.13;3.22;;;7.10;99.90;;;;;;5051568;28;20082;-67
2023/01/09 11:09:01;;;;;;;8.38;3.97;;;7.20;99.90;;;;;;5052226;28;20378;-67
2023/01/09 11:11:39;;;;;;;6.78;3.10;;;7.20;99.90;;;;;;5051806;28;20383;-67
2023/01/09 11:14:11;;;;;;;4.15;2.75;;;7.20;99.90;;;;;;5050810;28;20276;-66
2023/01/09 11:16:37;;;;;;;9.45;3.97;;;7.20;99.90;;;;;;5051636;28;20041;-66
2023/01/09 11:19:02;;;;;;;4.93;3.10;;;7.20;99.90;;;;;;5050369;28;20037;-66
2023/01/09 11:21:34;;;;;;;8.27;3.55;;;7.20;99.90;;;;;;5051693;28;20048;-67
2023/01/09 11:24:19;;;;;;;6.47;3.15;;;7.30;99.90;;;;;;5050991;28;20090;-66
2023/01/09 11:26:46;;;;;;;4.68;3.17;;;7.30;99.90;;;;;;5051533;28;20092;-66
2023/01/09 11:29:17;;;;;;;3.90;3.38;;;7.30;99.90;;;;;;5049267;28;20037;-66
2023/01/09 11:31:52;;;;;;;5.38;3.20;;;7.30;99.90;;;;;;5051102;28;20033;-65
2023/01/09 11:34:20;;;;;;;7.85;3.40;;;7.40;99.90;;;;;;5048760;28;20043;-66
2023/01/09 11:36:47;;;;;;;4.47;3.72;;;7.40;99.90;;;;;;5050576;28;20044;-66
2023/01/09 11:39:25;;;;;;;4.22;3.83;;;7.40;99.90;;;;;;5050978;28;20112;-66
2023/01/09 11:41:57;;;;;;;6.60;3.58;;;7.40;99.90;;;;;;5048227;28;20041;-69
2023/01/09 11:44:23;;;;;;;4.60;3.50;;;7.40;99.90;;;;;;5050291;28;20087;-66
2023/01/09 11:46:49;;;;;;;6.57;3.78;;;7.40;99.90;;;;;;5050901;28;20037;-67
2023/01/09 11:49:29;;;;;;;6.80;3.40;;;7.40;99.90;;;;;;5050292;28;20512;-67
2023/01/09 11:52:10;;;;;;;6.22;3.70;;;7.40;99.90;;;;;;5051344;28;20409;-67
2023/01/09 11:54:43;;;;;;;6.03;3.70;;;7.40;99.90;;;;;;5050558;28;20045;-67
2023/01/09 11:57:11;;;;;;;6.35;3.72;;;7.40;99.90;;;;;;5058446;28;20087;-67
2023/01/09 11:59:36;;;;;;;5.85;3.78;;;7.50;99.90;;;;;;5052755;28;20067;-67
2023/01/09 12:02:20;;;;;;;6.57;4.63;;;7.50;99.90;;;;;;5071129;28;20041;-67
2023/01/09 12:05:00;;;;;;;5.80;4.20;;;7.50;99.90;;;;;;5070005;28;20124;-66
2023/01/09 12:08:09;;;;;;;7.25;4.38;;;7.50;99.90;;;;;;5069780;28;20504;-67
2023/01/09 12:11:10;;;;;;;8.45;5.30;;;7.50;99.90;;;;;;5070891;28;20040;-67
2023/01/09 12:14:08;;;;;;;8.90;5.20;;;7.50;99.90;;;;;;5070991;28;20044;-67
2023/01/09 12:16:44;;;;;;;9.15;5.47;;;7.50;99.90;;;;;;5069859;28;20079;-67
2023/01/09 12:19:38;;;;;;;12.00;5.13;;;7.50;99.90;;;;;;5070708;28;20040;-67
2023/01/09 12:22:32;;;;;;;7.60;5.45;;;7.50;99.90;;;;;;5070910;28;20120;-66
2023/01/09 12:25:12;;;;;;;9.00;5.80;;;7.60;99.90;;;;;;5070006;28;20086;-67
2023/01/09 12:28:05;;;;;;;9.48;5.82;;;7.60;99.90;;;;;;5070852;28;20548;-66
2023/01/09 12:31:03;;;;;;;10.80;5.97;;;7.60;99.90;;;;;;5070691;28;20497;-69
2023/01/09 12:33:46;;;;;;;10.32;6.13;;;7.60;99.90;;;;;;5070664;28;20036;-70
2023/01/09 12:36:29;;;;;;;9.55;6.30;;;7.60;99.90;;;;;;5070840;28;20084;-67
2023/01/09 12:39:06;;;;;;;10.02;6.13;;;7.60;99.90;;;;;;5070767;28;20045;-66
2023/01/09 12:41:56;;;;;;;7.60;6.28;;;7.70;99.90;;;;;;5070605;28;20047;-66
2023/01/09 12:44:56;;;;;;;10.00;6.68;;;7.80;99.90;;;;;;5068618;28;20043;-66
2023/01/09 12:47:45;;;;;;;10.98;6.70;;;7.80;99.90;;;;;;5070867;28;20044;-66
2023/01/09 12:50:36;;;;;;;10.70;6.15;;;7.80;99.90;;;;;;5048660;28;20230;-66
2023/01/09 12:53:28;;;;;;;9.00;6.18;;;7.80;99.90;;;;;;5049647;28;20051;-66
2023/01/09 12:56:10;;;;;;;11.70;6.07;;;7.80;99.90;;;;;;5047409;28;20053;-66
2023/01/09 12:58:48;;;;;;;15.00;7.30;;;7.90;99.90;;;;;;5049270;28;20053;-66
2023/01/09 13:01:18;;;;;;;10.35;6.32;;;8.00;99.90;;;;;;5053887;28;20090;-66
2023/01/09 13:03:55;;;;;;;13.55;7.15;;;8.00;99.90;;;;;;5053539;28;20048;-66
2023/01/09 13:06:23;;;;;;;16.60;7.78;;;8.10;99.90;;;;;;5054294;28;20045;-66
2023/01/09 13:09:00;;;;;;;22.25;6.85;;;8.10;99.90;;;;;;5052002;28;20037;-66
2023/01/09 13:11:44;;;;;;;15.00;8.43;;;8.20;99.90;;;;;;5054201;28;20451;-66
2023/01/09 13:14:21;;;;;;;12.75;6.72;;;8.30;99.90;;;;;;5053221;28;20079;-66
2023/01/09 13:16:49;;;;;;;14.13;7.28;;;8.20;99.90;;;;;;5054066;28;20045;-66
2023/01/09 13:19:27;;;;;;;13.63;8.25;;;8.20;99.90;;;;;;5052543;28;20048;-66
2023/01/09 13:21:55;;;;;;;13.25;6.55;;;8.30;99.90;;;;;;5052320;28;20091;-66
2023/01/09 13:24:29;;;;;;;15.07;7.43;;;8.30;99.90;;;;;;5053095;28;20043;-66